createdAt,value
2023-04-17T00:02:25.557Z,53.15
2023-04-17T00:04:52.469Z,52.83
2023-04-17T00:07:22.460Z,50.70
2023-04-17T00:09:48.993Z,50.10
2023-04-17T00:12:15.489Z,56.17
2023-04-17T00:14:42.006Z,54.00
2023-04-17T00:17:08.422Z,51.65
2023-04-17T00:19:34.829Z,49.05
2023-04-17T00:22:01.198Z,52.90
2023-04-17T00:24:27.568Z,52.40
2023-04-17T00:26:53.934Z,46.85
2023-04-17T00:29:20.339Z,48.25
2023-04-17T00:31:46.788Z,46.83
2023-04-17T00:34:13.261Z,47.10
2023-04-17T00:36:39.667Z,51.67
2023-04-17T00:39:06.045Z,49.80
2023-04-17T00:41:32.417Z,50.60
2023-04-17T00:43:58.767Z,53.25
2023-04-17T00:46:25.408Z,48.40
2023-04-17T00:48:51.858Z,52.80
2023-04-17T00:51:18.250Z,55.00
2023-04-17T00:53:45.539Z,54.00
2023-04-17T00:56:11.956Z,52.65
2023-04-17T00:58:38.477Z,51.53
2023-04-17T01:01:05.953Z,50.83
2023-04-17T01:03:33.115Z,48.28
2023-04-17T01:05:59.797Z,50.40
2023-04-17T01:08:26.174Z,51.40
2023-04-17T01:10:52.635Z,52.17
2023-04-17T01:13:19.068Z,53.20
2023-04-17T01:15:46.806Z,48.83
2023-04-17T01:18:13.191Z,48.25
2023-04-17T01:20:39.589Z,50.50
2023-04-17T01:23:05.952Z,48.72
2023-04-17T01:25:32.373Z,48.17
2023-04-17T01:27:58.776Z,48.05
2023-04-17T01:30:25.329Z,47.03
2023-04-17T01:32:53.983Z,47.50
2023-04-17T01:35:20.513Z,48.15
2023-04-17T01:37:46.913Z,45.35
2023-04-17T01:40:13.600Z,45.47
2023-04-17T01:42:40.305Z,47.60
2023-04-17T01:45:07.296Z,51.45
2023-04-17T01:47:33.756Z,51.30
2023-04-17T01:50:00.746Z,49.88
2023-04-17T01:52:27.109Z,47.78
2023-04-17T01:54:53.494Z,43.85
2023-04-17T01:57:19.910Z,46.10
2023-04-17T01:59:46.269Z,41.38
2023-04-17T02:02:12.731Z,45.15
2023-04-17T02:04:39.280Z,46.80
2023-04-17T02:07:05.843Z,47.05
2023-04-17T02:09:32.310Z,45.70
2023-04-17T02:11:58.682Z,44.50
2023-04-17T02:14:25.208Z,44.42
2023-04-17T02:16:53.622Z,43.08
2023-04-17T02:19:20.001Z,49.90
2023-04-17T02:21:46.398Z,48.45
2023-04-17T02:24:12.775Z,47.30
2023-04-17T02:26:40.424Z,46.80
2023-04-17T02:29:06.823Z,48.58
2023-04-17T02:31:33.347Z,47.83
2023-04-17T02:33:59.779Z,51.47
2023-04-17T02:36:27.118Z,50.45
2023-04-17T02:38:53.485Z,48.17
2023-04-17T02:41:19.858Z,49.60
2023-04-17T02:43:46.933Z,49.67
2023-04-17T02:46:13.375Z,49.63
2023-04-17T02:48:39.754Z,51.45
2023-04-17T02:51:06.164Z,52.85
2023-04-17T02:53:32.528Z,51.20
2023-04-17T02:55:58.899Z,50.63
2023-04-17T02:58:25.284Z,50.58
2023-04-17T03:00:51.703Z,54.75
2023-04-17T03:03:18.272Z,50.63
2023-04-17T03:05:44.862Z,53.75
2023-04-17T03:08:11.244Z,53.83
2023-04-17T03:10:37.649Z,50.63
2023-04-17T03:13:04.403Z,55.25
2023-04-17T03:15:30.994Z,54.85
2023-04-17T03:17:57.419Z,52.35
2023-04-17T03:20:23.879Z,51.05
2023-04-17T03:22:50.477Z,51.35
2023-04-17T03:25:16.951Z,59.75
2023-04-17T03:27:43.360Z,58.65
2023-04-17T03:30:10.194Z,55.97
2023-04-17T03:32:37.977Z,52.08
2023-04-17T03:35:04.915Z,54.70
2023-04-17T03:37:32.182Z,54.50
2023-04-17T03:39:58.620Z,52.50
2023-04-17T03:42:26.651Z,56.60
2023-04-17T03:44:53.041Z,58.72
2023-04-17T03:47:19.483Z,52.00
2023-04-17T03:49:45.891Z,55.47
2023-04-17T03:52:12.320Z,51.80
2023-04-17T03:54:38.736Z,51.92
2023-04-17T03:57:05.284Z,57.20
2023-04-17T03:59:31.804Z,51.97
2023-04-17T04:01:58.426Z,56.30
2023-04-17T04:04:25.396Z,50.67
2023-04-17T04:06:54.297Z,55.80
2023-04-17T04:09:21.202Z,55.38
2023-04-17T04:11:47.656Z,54.17
2023-04-17T04:14:14.555Z,57.58
2023-04-17T04:16:41.264Z,55.00
2023-04-17T04:19:07.677Z,54.22
2023-04-17T04:21:34.431Z,53.35
2023-04-17T04:24:00.974Z,51.33
2023-04-17T04:26:27.368Z,55.67
2023-04-17T04:28:53.825Z,53.20
2023-04-17T04:31:20.631Z,54.63
2023-04-17T04:33:47.294Z,56.75
2023-04-17T04:36:20.892Z,58.17
2023-04-17T04:38:49.730Z,55.55
2023-04-17T04:41:17.573Z,53.80
2023-04-17T04:43:44.238Z,55.10
2023-04-17T04:46:11.469Z,56.47
2023-04-17T04:48:39.406Z,51.50
2023-04-17T04:51:07.825Z,57.75
2023-04-17T04:53:34.198Z,51.00
2023-04-17T04:56:00.689Z,51.13
2023-04-17T04:58:29.451Z,49.10
2023-04-17T05:00:56.236Z,54.58
2023-04-17T05:03:23.443Z,55.10
2023-04-17T05:05:50.475Z,55.70
2023-04-17T05:08:16.933Z,50.40
2023-04-17T05:10:43.339Z,49.33
2023-04-17T05:13:10.210Z,53.22
2023-04-17T05:15:36.609Z,51.45
2023-04-17T05:18:03.099Z,51.05
2023-04-17T05:20:29.665Z,53.00
2023-04-17T05:22:56.617Z,52.40
2023-04-17T05:25:23.184Z,50.20
2023-04-17T05:27:49.592Z,46.15
2023-04-17T05:30:16.001Z,49.40
2023-04-17T05:32:42.495Z,49.08
2023-04-17T05:35:09.023Z,47.22
2023-04-17T05:37:35.407Z,50.95
2023-04-17T05:40:02.539Z,49.50
2023-04-17T05:42:28.943Z,49.80
2023-04-17T05:44:55.330Z,53.63
2023-04-17T05:47:21.755Z,54.58
2023-04-17T05:49:51.069Z,54.10
2023-04-17T05:52:17.630Z,49.28
2023-04-17T05:54:44.114Z,50.47
2023-04-17T05:57:10.663Z,51.30
2023-04-17T05:59:37.051Z,52.30
2023-04-17T06:02:04.747Z,48.50
2023-04-17T06:04:32.081Z,47.05
2023-04-17T06:06:58.793Z,45.95
2023-04-17T06:09:25.790Z,46.70
2023-04-17T06:11:52.303Z,47.08
2023-04-17T06:14:18.749Z,46.45
2023-04-17T06:16:45.355Z,49.33
2023-04-17T06:19:12.139Z,48.92
2023-04-17T06:21:38.772Z,48.60
2023-04-17T06:24:05.637Z,46.60
2023-04-17T06:26:32.067Z,47.22
2023-04-17T06:28:58.418Z,49.85
2023-04-17T06:31:25.184Z,48.45
2023-04-17T06:33:51.583Z,50.85
2023-04-17T06:36:18.004Z,45.90
2023-04-17T06:38:44.414Z,45.50
2023-04-17T06:41:10.792Z,45.45
2023-04-17T06:43:37.215Z,50.83
2023-04-17T06:46:03.646Z,54.00
2023-04-17T06:48:30.203Z,47.40
2023-04-17T06:50:56.598Z,48.72
2023-04-17T06:53:22.962Z,47.63
2023-04-17T06:55:49.418Z,48.88
2023-04-17T06:58:15.818Z,49.58
2023-04-17T07:00:42.234Z,49.28
2023-04-17T07:03:08.720Z,47.80
2023-04-17T07:05:35.241Z,48.95
2023-04-17T07:08:01.702Z,48.45
2023-04-17T07:10:28.086Z,47.47
2023-04-17T07:12:55.192Z,51.78
2023-04-17T07:15:21.672Z,47.80
2023-04-17T07:17:48.164Z,45.42
2023-04-17T07:20:14.594Z,46.58
2023-04-17T07:22:41.400Z,47.83
2023-04-17T07:25:08.058Z,49.75
2023-04-17T07:27:34.446Z,53.75
2023-04-17T07:30:00.901Z,48.85
2023-04-17T07:32:28.340Z,47.50
2023-04-17T07:34:54.743Z,47.35
2023-04-17T07:37:21.392Z,43.38
2023-04-17T07:39:50.961Z,43.63
2023-04-17T07:42:17.377Z,41.75
2023-04-17T07:44:43.814Z,45.38
2023-04-17T07:47:10.389Z,42.30
2023-04-17T07:49:36.901Z,42.40
2023-04-17T07:52:03.468Z,46.88
2023-04-17T07:54:31.188Z,42.97
2023-04-17T07:57:02.662Z,43.50
2023-04-17T07:59:29.812Z,43.30
2023-04-17T08:01:57.169Z,37.90
2023-04-17T08:04:24.938Z,36.45
2023-04-17T08:06:52.160Z,39.25
2023-04-17T08:09:18.528Z,34.58
2023-04-17T08:11:56.138Z,37.85
2023-04-17T08:14:23.797Z,37.28
2023-04-17T08:16:50.506Z,34.88
2023-04-17T08:19:17.023Z,34.08
2023-04-17T08:21:43.433Z,35.72
2023-04-17T08:24:09.810Z,33.55
2023-04-17T08:26:36.361Z,29.80
2023-04-17T08:29:04.439Z,34.50
2023-04-17T08:31:31.367Z,36.63
2023-04-17T08:34:10.949Z,31.88
2023-04-17T08:36:40.679Z,27.08
2023-04-17T08:39:07.118Z,24.52
2023-04-17T08:41:40.616Z,25.38
2023-04-17T08:44:06.994Z,28.67
2023-04-17T08:46:34.513Z,27.95
2023-04-17T08:49:02.962Z,26.02
2023-04-17T08:51:29.353Z,28.23
2023-04-17T08:53:55.744Z,26.15
2023-04-17T08:56:22.728Z,24.00
2023-04-17T08:58:49.083Z,23.95
2023-04-17T09:01:20.463Z,21.30
2023-04-17T09:03:48.122Z,26.20
2023-04-17T09:06:15.379Z,20.83
2023-04-17T09:09:14.345Z,21.65
2023-04-17T09:11:40.733Z,21.60
2023-04-17T09:14:07.107Z,20.52
2023-04-17T09:16:34.120Z,20.75
2023-04-17T09:19:06.997Z,19.70
2023-04-17T09:21:33.406Z,18.85
2023-04-17T09:23:59.876Z,20.17
2023-04-17T09:26:27.268Z,19.27
2023-04-17T09:29:04.267Z,22.88
2023-04-17T09:31:34.147Z,20.38
2023-04-17T09:34:04.731Z,16.30
2023-04-17T09:36:33.769Z,19.35
2023-04-17T09:39:03.390Z,16.05
2023-04-17T09:41:31.767Z,14.13
2023-04-17T09:44:05.278Z,12.88
2023-04-17T09:46:37.863Z,17.10
2023-04-17T09:49:09.813Z,19.83
2023-04-17T09:51:36.860Z,13.45
2023-04-17T09:54:06.900Z,13.10
2023-04-17T09:56:35.857Z,14.35
2023-04-17T09:59:06.102Z,13.35
2023-04-17T10:01:33.941Z,13.25
2023-04-17T10:04:01.855Z,14.73
2023-04-17T10:06:31.070Z,13.65
2023-04-17T10:08:57.875Z,13.02
2023-04-17T10:11:26.393Z,10.68
2023-04-17T10:14:21.487Z,10.82
2023-04-17T10:16:49.139Z,12.88
2023-04-17T10:19:36.569Z,12.30
2023-04-17T10:22:18.150Z,14.85
2023-04-17T10:24:48.767Z,16.45
2023-04-17T10:27:36.147Z,13.70
2023-04-17T10:30:04.549Z,13.38
2023-04-17T10:32:32.085Z,12.50
2023-04-17T10:35:00.842Z,12.77
2023-04-17T10:37:52.263Z,13.48
2023-04-17T10:40:23.231Z,15.82
2023-04-17T10:43:17.134Z,14.75
2023-04-17T10:46:12.956Z,13.40
2023-04-17T10:48:42.861Z,16.23
2023-04-17T10:51:21.605Z,14.55
2023-04-17T10:53:51.847Z,16.33
2023-04-17T10:56:38.900Z,13.40
2023-04-17T10:59:09.878Z,15.50
2023-04-17T11:01:48.566Z,15.18
2023-04-17T11:04:22.986Z,16.60
2023-04-17T11:06:49.871Z,14.77
2023-04-17T11:09:16.537Z,17.35
2023-04-17T11:11:44.898Z,14.60
2023-04-17T11:14:14.462Z,14.07
2023-04-17T11:16:43.007Z,14.52
2023-04-17T11:19:10.301Z,13.18
2023-04-17T11:21:44.162Z,13.50
2023-04-17T11:24:11.026Z,15.38
2023-04-17T11:26:47.349Z,15.27
2023-04-17T11:29:21.720Z,17.77
2023-04-17T11:31:49.412Z,12.75
2023-04-17T11:34:16.872Z,16.05
2023-04-17T11:36:54.308Z,14.02
2023-04-17T11:39:21.690Z,14.45
2023-04-17T11:41:48.401Z,13.75
2023-04-17T11:44:18.175Z,17.98
2023-04-17T11:46:58.553Z,16.38
2023-04-17T11:49:29.281Z,15.15
2023-04-17T11:51:58.725Z,18.67
2023-04-17T11:54:38.079Z,20.00
2023-04-17T11:57:06.426Z,14.63
2023-04-17T11:59:37.753Z,17.75
2023-04-17T12:02:06.975Z,15.13
2023-04-17T12:04:34.895Z,14.20
2023-04-17T12:07:02.632Z,18.23
2023-04-17T12:09:31.753Z,16.17
2023-04-17T12:11:59.309Z,13.32
2023-04-17T12:14:26.593Z,14.05
2023-04-17T12:16:53.087Z,18.45
2023-04-17T12:19:22.385Z,13.85
2023-04-17T12:21:48.773Z,17.67
2023-04-17T12:24:15.616Z,15.65
2023-04-17T12:26:46.777Z,14.95
2023-04-17T12:29:14.373Z,12.73
2023-04-17T12:31:41.331Z,12.93
2023-04-17T12:34:07.747Z,14.38
2023-04-17T12:36:34.242Z,14.02
2023-04-17T12:39:01.398Z,15.40
2023-04-17T12:41:27.961Z,13.55
2023-04-17T12:43:54.614Z,18.13
2023-04-17T12:46:21.407Z,15.02
2023-04-17T12:48:47.939Z,17.17
2023-04-17T12:51:14.328Z,13.57
2023-04-17T12:53:40.709Z,13.77
2023-04-17T12:56:07.429Z,14.95
2023-04-17T12:58:33.866Z,11.60
2023-04-17T13:01:00.276Z,11.93
2023-04-17T13:03:26.923Z,16.55
2023-04-17T13:05:53.582Z,12.55
2023-04-17T13:08:19.990Z,17.15
2023-04-17T13:10:46.365Z,15.60
2023-04-17T13:13:12.850Z,13.55
2023-04-17T13:15:39.321Z,16.50
2023-04-17T13:18:05.830Z,16.13
2023-04-17T13:20:32.255Z,17.48
2023-04-17T13:22:59.128Z,13.50
2023-04-17T13:25:25.753Z,12.68
2023-04-17T13:27:52.206Z,17.08
2023-04-17T13:30:18.706Z,15.68
2023-04-17T13:32:45.184Z,16.92
2023-04-17T13:35:13.409Z,12.38
2023-04-17T13:37:42.975Z,12.60
2023-04-17T13:40:12.748Z,12.10
2023-04-17T13:42:39.374Z,14.65
2023-04-17T13:45:07.001Z,12.68
2023-04-17T13:47:33.408Z,13.65
2023-04-17T13:50:00.028Z,12.85
2023-04-17T13:52:26.781Z,13.63
2023-04-17T13:54:54.251Z,12.07
2023-04-17T13:57:20.776Z,12.80
2023-04-17T13:59:47.150Z,16.15
2023-04-17T14:02:13.659Z,13.63
2023-04-17T14:04:40.306Z,15.23
2023-04-17T14:07:06.805Z,12.27
2023-04-17T14:09:33.187Z,10.98
2023-04-17T14:11:59.592Z,10.10
2023-04-17T14:14:27.145Z,13.00
2023-04-17T14:16:53.540Z,10.48
2023-04-17T14:19:20.241Z,13.50
2023-04-17T14:21:46.856Z,12.43
2023-04-17T14:24:13.231Z,13.20
2023-04-17T14:26:39.814Z,12.77
2023-04-17T14:29:06.374Z,11.10
2023-04-17T14:31:32.856Z,11.40
2023-04-17T14:33:59.270Z,15.90
2023-04-17T14:36:25.882Z,13.10
2023-04-17T14:38:53.654Z,11.27
2023-04-17T14:41:20.370Z,11.40
2023-04-17T14:43:46.798Z,12.23
2023-04-17T14:46:13.254Z,12.50
2023-04-17T14:48:54.213Z,9.45
2023-04-17T14:51:23.346Z,12.70
2023-04-17T14:53:51.099Z,15.02
2023-04-17T14:56:17.532Z,9.73
2023-04-17T14:58:43.920Z,11.35
2023-04-17T15:01:10.612Z,14.23
2023-04-17T15:03:37.316Z,14.02
2023-04-17T15:06:04.117Z,11.05
2023-04-17T15:08:31.140Z,12.38
2023-04-17T15:10:58.101Z,15.80
2023-04-17T15:13:24.623Z,13.32
2023-04-17T15:15:51.050Z,10.05
2023-04-17T15:18:17.484Z,13.30
2023-04-17T15:20:43.889Z,13.10
2023-04-17T15:23:10.271Z,10.20
2023-04-17T15:25:36.737Z,15.75
2023-04-17T15:28:03.192Z,11.25
2023-04-17T15:30:29.656Z,10.30
2023-04-17T15:32:56.099Z,10.88
2023-04-17T15:35:22.560Z,12.73
2023-04-17T15:37:49.015Z,12.00
2023-04-17T15:40:16.152Z,10.85
2023-04-17T15:42:42.549Z,12.77
2023-04-17T15:45:09.625Z,11.43
2023-04-17T15:47:36.042Z,12.95
2023-04-17T15:50:02.467Z,11.93
2023-04-17T15:52:28.865Z,12.90
2023-04-17T15:54:55.266Z,13.88
2023-04-17T15:57:22.831Z,10.43
2023-04-17T15:59:49.371Z,12.75
2023-04-17T16:02:16.212Z,9.75
2023-04-17T16:04:43.779Z,11.05
2023-04-17T16:07:11.917Z,9.18
2023-04-17T16:09:39.900Z,12.35
2023-04-17T16:12:09.946Z,11.23
2023-04-17T16:14:36.999Z,12.23
2023-04-17T16:17:03.745Z,10.80
2023-04-17T16:19:30.752Z,12.55
2023-04-17T16:21:57.486Z,10.52
2023-04-17T16:24:25.177Z,11.57
2023-04-17T16:26:55.662Z,11.23
2023-04-17T16:29:22.234Z,13.52
2023-04-17T16:31:48.643Z,10.60
2023-04-17T16:34:15.192Z,13.75
2023-04-17T16:36:45.414Z,12.18
2023-04-17T16:39:12.528Z,11.10
2023-04-17T16:41:39.148Z,16.52
2023-04-17T16:44:05.694Z,11.52
2023-04-17T16:46:48.269Z,15.85
2023-04-17T16:49:18.447Z,13.52
2023-04-17T16:51:44.828Z,11.75
2023-04-17T16:54:11.345Z,13.40
2023-04-17T16:56:37.845Z,14.00
2023-04-17T16:59:04.693Z,11.77
2023-04-17T17:01:32.169Z,11.63
2023-04-17T17:03:58.693Z,12.27
2023-04-17T17:06:25.274Z,13.30
2023-04-17T17:08:53.066Z,13.55
2023-04-17T17:11:20.719Z,16.55
2023-04-17T17:13:51.097Z,18.23
2023-04-17T17:16:18.545Z,12.38
2023-04-17T17:18:45.612Z,14.95
2023-04-17T17:21:12.077Z,14.18
2023-04-17T17:23:38.556Z,14.15
2023-04-17T17:26:05.337Z,17.00
2023-04-17T17:28:31.873Z,15.50
2023-04-17T17:31:02.981Z,12.40
2023-04-17T17:33:29.888Z,18.85
2023-04-17T17:35:57.141Z,14.13
2023-04-17T17:38:23.880Z,14.15
2023-04-17T17:40:53.307Z,13.38
2023-04-17T17:43:19.771Z,12.57
2023-04-17T17:45:46.374Z,13.35
2023-04-17T17:48:15.315Z,13.95
2023-04-17T17:50:42.782Z,13.25
2023-04-17T17:53:10.023Z,13.70
2023-04-17T17:55:37.864Z,14.45
2023-04-17T17:58:05.738Z,13.10
2023-04-17T18:00:32.356Z,13.50
2023-04-17T18:02:59.228Z,13.73
2023-04-17T18:05:25.755Z,12.55
2023-04-17T18:07:52.135Z,15.65
2023-04-17T18:10:18.660Z,13.70
2023-04-17T18:12:45.020Z,12.55
2023-04-17T18:15:11.747Z,14.95
2023-04-17T18:17:38.174Z,12.13
2023-04-17T18:20:04.820Z,14.32
2023-04-17T18:22:31.242Z,14.57
2023-04-17T18:24:57.616Z,15.32
2023-04-17T18:27:24.008Z,13.63
2023-04-17T18:29:50.383Z,17.40
2023-04-17T18:32:16.961Z,14.65
2023-04-17T18:34:43.843Z,14.68
2023-04-17T18:37:10.381Z,15.23
2023-04-17T18:39:36.821Z,13.05
2023-04-17T18:42:03.238Z,14.05
2023-04-17T18:44:29.647Z,14.55
2023-04-17T18:46:56.076Z,15.90
2023-04-17T18:49:22.525Z,12.43
2023-04-17T18:51:50.001Z,19.00
2023-04-17T18:54:17.262Z,13.55
2023-04-17T18:56:44.292Z,14.43
2023-04-17T18:59:11.220Z,14.63
2023-04-17T19:01:37.811Z,20.17
2023-04-17T19:04:04.721Z,13.75
2023-04-17T19:06:31.512Z,13.48
2023-04-17T19:08:57.936Z,13.13
2023-04-17T19:11:24.363Z,15.30
2023-04-17T19:13:50.842Z,15.65
2023-04-17T19:16:17.293Z,16.50
2023-04-17T19:18:43.687Z,14.52
2023-04-17T19:21:10.426Z,17.90
2023-04-17T19:23:37.380Z,17.05
2023-04-17T19:26:03.934Z,16.25
2023-04-17T19:28:30.383Z,15.13
2023-04-17T19:30:57.809Z,15.23
2023-04-17T19:33:24.261Z,20.85
2023-04-17T19:35:52.204Z,14.25
2023-04-17T19:38:18.724Z,17.60
2023-04-17T19:40:57.909Z,16.77
2023-04-17T19:43:24.289Z,14.85
2023-04-17T19:45:50.695Z,17.52
2023-04-17T19:48:17.090Z,19.95
2023-04-17T19:50:43.493Z,13.50
2023-04-17T19:53:09.885Z,13.43
2023-04-17T19:55:36.327Z,17.98
2023-04-17T19:58:02.698Z,13.98
2023-04-17T20:00:29.155Z,15.00
2023-04-17T20:02:56.074Z,16.98
2023-04-17T20:05:22.745Z,17.77
2023-04-17T20:07:49.166Z,18.90
2023-04-17T20:10:16.753Z,15.38
2023-04-17T20:12:43.128Z,17.67
2023-04-17T20:15:10.102Z,18.27
2023-04-17T20:17:36.516Z,17.48
2023-04-17T20:20:03.036Z,17.15
2023-04-17T20:22:29.421Z,18.35
2023-04-17T20:24:55.805Z,20.65
2023-04-17T20:27:22.213Z,21.02
2023-04-17T20:29:48.639Z,22.10
2023-04-17T20:32:15.170Z,17.58
2023-04-17T20:34:41.549Z,17.67
2023-04-17T20:37:07.938Z,17.17
2023-04-17T20:39:34.322Z,26.50
2023-04-17T20:42:01.514Z,17.85
2023-04-17T20:44:27.973Z,16.73
2023-04-17T20:46:54.362Z,15.02
2023-04-17T20:49:20.976Z,19.55
2023-04-17T20:51:47.383Z,18.90
2023-04-17T20:54:13.971Z,14.82
2023-04-17T20:56:40.483Z,17.80
2023-04-17T20:59:06.934Z,17.40
2023-04-17T21:01:33.330Z,16.98
2023-04-17T21:03:59.814Z,13.50
2023-04-17T21:06:26.888Z,15.13
2023-04-17T21:08:53.825Z,14.18
2023-04-17T21:11:21.317Z,15.52
2023-04-17T21:13:48.073Z,13.88
2023-04-17T21:16:14.529Z,14.07
2023-04-17T21:18:40.919Z,12.65
2023-04-17T21:21:07.339Z,13.73
2023-04-17T21:23:33.760Z,14.30
2023-04-17T21:26:00.436Z,15.70
2023-04-17T21:28:26.819Z,14.88
2023-04-17T21:30:53.306Z,13.32
2023-04-17T21:33:19.682Z,12.55
2023-04-17T21:35:46.183Z,12.60
2023-04-17T21:38:12.644Z,13.00
2023-04-17T21:40:50.519Z,14.65
2023-04-17T21:43:18.047Z,13.27
2023-04-17T21:45:44.473Z,18.23
2023-04-17T21:48:10.893Z,14.52
2023-04-17T21:50:37.251Z,12.73
2023-04-17T21:53:03.636Z,14.88
2023-04-17T21:55:30.039Z,13.68
2023-04-17T21:57:56.477Z,14.18
2023-04-17T22:00:22.876Z,13.95
2023-04-17T22:02:49.368Z,14.95
2023-04-17T22:05:15.799Z,14.25
2023-04-17T22:07:51.695Z,16.80
2023-04-17T22:10:21.097Z,13.85
2023-04-17T22:12:47.482Z,14.68
2023-04-17T22:15:13.841Z,13.30
2023-04-17T22:17:41.014Z,11.10
2023-04-17T22:20:08.292Z,16.17
2023-04-17T22:22:34.656Z,12.50
2023-04-17T22:25:01.205Z,13.35
2023-04-17T22:27:29.054Z,14.50
2023-04-17T22:29:55.584Z,14.93
2023-04-17T22:32:21.995Z,16.88
2023-04-17T22:34:49.398Z,18.95
2023-04-17T22:37:15.978Z,13.85
2023-04-17T22:39:42.366Z,15.77
2023-04-17T22:42:08.752Z,14.65
2023-04-17T22:44:35.684Z,15.45
2023-04-17T22:47:02.038Z,12.35
2023-04-17T22:49:28.404Z,12.63
2023-04-17T22:51:54.789Z,10.48
2023-04-17T22:54:23.182Z,12.63
2023-04-17T22:56:49.826Z,15.15
2023-04-17T22:59:16.284Z,17.02
2023-04-17T23:01:42.692Z,11.25
2023-04-17T23:04:10.318Z,14.52
2023-04-17T23:06:36.762Z,13.10
2023-04-17T23:09:04.696Z,12.98
2023-04-17T23:11:31.880Z,14.77
2023-04-17T23:13:58.368Z,13.95
2023-04-17T23:16:24.791Z,13.88
2023-04-17T23:18:51.227Z,17.10
2023-04-17T23:21:17.631Z,14.00
2023-04-17T23:23:44.026Z,15.52
2023-04-17T23:26:15.098Z,14.48
2023-04-17T23:28:41.618Z,13.10
2023-04-17T23:31:08.046Z,13.77
2023-04-17T23:33:34.574Z,17.08
2023-04-17T23:36:01.066Z,13.75
2023-04-17T23:38:27.602Z,14.43
2023-04-17T23:40:54.155Z,15.38
2023-04-17T23:43:20.860Z,14.98
2023-04-17T23:45:47.234Z,13.38
2023-04-17T23:48:13.654Z,12.43
2023-04-17T23:50:40.853Z,13.32
2023-04-17T23:53:07.469Z,13.32
2023-04-17T23:55:34.375Z,15.57
2023-04-17T23:58:00.751Z,13.23
